Wetterdaten: Freitag, 05.08.2011
Datum Zeit Temp. Auen Feucht Auen Luftdruck Regen Richtung Richtung Windben
05.08.2011 00:00 13,8 C 99 % 1085,4 hPa 0,0 mm N 0 0,0 km/h (0 Bft)
05.08.2011 00:05 13,8 C 99 % 1085,4 hPa 0,0 mm N 0 0,0 km/h (0 Bft)
05.08.2011 00:10 13,6 C 99 % 1085,4 hPa 0,0 mm N 0 0,0 km/h (0 Bft)
05.08.2011 00:15 13,6 C 99 % 1085,3 hPa 0,0 mm N 0 0,0 km/h (0 Bft)
05.08.2011 00:20 13,6 C 99 % 1085,3 hPa 0,0 mm N 0 0,0 km/h (0 Bft)
05.08.2011 00:25 13,5 C 99 % 1085,3 hPa 0,0 mm N 0 0,0 km/h (0 Bft)
05.08.2011 00:30 13,5 C 99 % 1085,4 hPa 0,0 mm SO 135 2,5 km/h (1 Bft)
05.08.2011 00:35 13,3 C 99 % 1085,4 hPa 0,0 mm SO 135 2,5 km/h (1 Bft)
05.08.2011 00:40 13,3 C 99 % 1085,2 hPa 0,0 mm SO 135 2,5 km/h (1 Bft)
05.08.2011 00:45 13,4 C 99 % 1085,4 hPa 0,0 mm SO 135 1,1 km/h (1 Bft)
05.08.2011 00:50 13,4 C 99 % 1085,4 hPa 0,0 mm SO 135 1,1 km/h (1 Bft)
05.08.2011 00:55 13,3 C 99 % 1085,3 hPa 0,0 mm SO 135 2,5 km/h (1 Bft)
05.08.2011 01:00 13,3 C 99 % 1085,0 hPa 0,0 mm SO 141 2,5 km/h (1 Bft)
05.08.2011 01:05 13,3 C 99 % 1085,1 hPa 0,0 mm SO 146 1,1 km/h (1 Bft)
05.08.2011 01:10 13,5 C 99 % 1085,2 hPa 0,0 mm N 0 0,0 km/h (0 Bft)
05.08.2011 01:15 13,7 C 99 % 1085,0 hPa 0,0 mm SO 135 1,1 km/h (1 Bft)
05.08.2011 01:20 13,8 C 99 % 1085,0 hPa 0,0 mm SO 135 1,1 km/h (1 Bft)
05.08.2011 01:25 13,8 C 99 % 1084,9 hPa 0,0 mm SO 135 1,1 km/h (1 Bft)
05.08.2011 01:30 13,8 C 99 % 1085,0 hPa 0,0 mm SO 135 1,1 km/h (1 Bft)
05.08.2011 01:35 13,8 C 99 % 1085,1 hPa 0,0 mm SO 135 2,5 km/h (1 Bft)
05.08.2011 01:40 13,9 C 99 % 1085,0 hPa 0,0 mm SO 135 2,5 km/h (1 Bft)
05.08.2011 01:45 14,0 C 99 % 1085,0 hPa 0,0 mm SO 135 2,5 km/h (1 Bft)
05.08.2011 01:50 14,0 C 99 % 1084,9 hPa 0,0 mm SO 135 1,1 km/h (1 Bft)
05.08.2011 01:55 14,1 C 99 % 1084,8 hPa 0,0 mm SO 145 2,5 km/h (1 Bft)
05.08.2011 02:00 14,1 C 99 % 1084,9 hPa 0,0 mm SO 144 2,5 km/h (1 Bft)
05.08.2011 02:05 14,1 C 99 % 1084,8 hPa 0,0 mm SO 135 2,5 km/h (1 Bft)
05.08.2011 02:10 14,0 C 99 % 1084,8 hPa 0,0 mm SO 135 2,5 km/h (1 Bft)
05.08.2011 02:15 14,0 C 99 % 1084,7 hPa 0,0 mm SO 135 2,5 km/h (1 Bft)
05.08.2011 02:20 14,1 C 99 % 1084,8 hPa 0,0 mm SO 135 2,5 km/h (1 Bft)
05.08.2011 02:25 14,1 C 99 % 1084,6 hPa 0,0 mm SO 135 1,1 km/h (1 Bft)
05.08.2011 02:30 14,2 C 99 % 1084,6 hPa 0,0 mm SO 135 1,1 km/h (1 Bft)
05.08.2011 02:35 14,2 C 99 % 1084,6 hPa 0,0 mm SO 135 1,1 km/h (1 Bft)
05.08.2011 02:40 14,3 C 99 % 1084,5 hPa 0,0 mm SO 135 2,5 km/h (1 Bft)
05.08.2011 02:45 14,3 C 99 % 1084,5 hPa 0,0 mm SO 136 3,6 km/h (1 Bft)
05.08.2011 02:50 14,3 C 99 % 1084,4 hPa 0,0 mm SO 137 3,6 km/h (1 Bft)
05.08.2011 02:55 14,3 C 99 % 1084,4 hPa 0,0 mm SO 138 2,5 km/h (1 Bft)
05.08.2011 03:00 14,2 C 99 % 1084,8 hPa 0,0 mm N 0 0,0 km/h (0 Bft)
05.08.2011 03:05 14,2 C 99 % 1084,7 hPa 0,0 mm N 0 0,0 km/h (0 Bft)
05.08.2011 03:10 14,2 C 99 % 1084,8 hPa 0,0 mm SO 135 3,6 km/h (1 Bft)
05.08.2011 03:15 14,2 C 99 % 1084,8 hPa 0,0 mm SO 135 3,6 km/h (1 Bft)
05.08.2011 03:20 14,2 C 99 % 1084,7 hPa 0,0 mm SO 135 3,6 km/h (1 Bft)
05.08.2011 03:25 14,2 C 99 % 1084,9 hPa 0,0 mm SO 135 3,6 km/h (1 Bft)
05.08.2011 03:30 14,2 C 99 % 1084,8 hPa 0,0 mm SO 135 1,1 km/h (1 Bft)
05.08.2011 03:35 14,3 C 99 % 1084,8 hPa 0,0 mm SO 135 1,1 km/h (1 Bft)
05.08.2011 03:40 14,2 C 99 % 1084,8 hPa 0,0 mm SO 135 1,1 km/h (1 Bft)
05.08.2011 03:45 14,2 C 99 % 1084,9 hPa 0,0 mm SO 135 2,5 km/h (1 Bft)
05.08.2011 03:50 14,2 C 99 % 1084,9 hPa 0,0 mm SO 135 2,5 km/h (1 Bft)
05.08.2011 03:55 14,1 C 99 % 1084,8 hPa 0,0 mm SO 135 2,5 km/h (1 Bft)
05.08.2011 04:00 14,1 C 99 % 1084,6 hPa 0,0 mm SO 135 1,1 km/h (1 Bft)
05.08.2011 04:05 14,1 C 99 % 1084,7 hPa 0,0 mm SO 135 1,1 km/h (1 Bft)
05.08.2011 04:10 14,0 C 99 % 1084,8 hPa 0,0 mm N 0 0,0 km/h (0 Bft)
05.08.2011 04:15 13,9 C 99 % 1084,8 hPa 0,0 mm SO 135 1,1 km/h (1 Bft)
05.08.2011 04:20 13,9 C 99 % 1084,8 hPa 0,0 mm SO 135 1,1 km/h (1 Bft)
05.08.2011 04:25 13,9 C 99 % 1084,8 hPa 0,0 mm SO 135 1,1 km/h (1 Bft)
05.08.2011 04:30 13,9 C 99 % 1084,9 hPa 0,0 mm N 0 0,0 km/h (0 Bft)
05.08.2011 04:35 13,9 C 99 % 1085,1 hPa 0,0 mm N 0 0,0 km/h (0 Bft)
05.08.2011 04:40 13,9 C 99 % 1084,9 hPa 0,0 mm N 0 0,0 km/h (0 Bft)
05.08.2011 04:45 13,9 C 99 % 1084,8 hPa 0,0 mm S-SO 167 3,6 km/h (1 Bft)
05.08.2011 04:50 13,8 C 99 % 1084,9 hPa 0,0 mm SO 141 3,6 km/h (1 Bft)
05.08.2011 04:55 13,8 C 99 % 1084,8 hPa 0,0 mm SO 135 3,6 km/h (1 Bft)
05.08.2011 05:00 13,7 C 99 % 1084,8 hPa 0,0 mm SO 135 3,6 km/h (1 Bft)
05.08.2011 05:05 13,7 C 99 % 1084,8 hPa 0,0 mm SO 135 1,1 km/h (1 Bft)
05.08.2011 05:10 13,7 C 99 % 1084,8 hPa 0,3 mm W-SW 257 2,5 km/h (1 Bft)
05.08.2011 05:15 13,6 C 99 % 1084,8 hPa 0,0 mm W 267 2,5 km/h (1 Bft)
05.08.2011 05:20 13,6 C 99 % 1085,0 hPa 0,0 mm W 270 2,5 km/h (1 Bft)
05.08.2011 05:25 13,6 C 99 % 1085,0 hPa 0,0 mm W 270 3,6 km/h (1 Bft)
05.08.2011 05:30 13,5 C 99 % 1085,0 hPa 0,0 mm W 270 3,6 km/h (1 Bft)
05.08.2011 05:35 13,5 C 99 % 1085,0 hPa 0,0 mm W 270 3,6 km/h (1 Bft)
05.08.2011 05:40 13,5 C 99 % 1085,1 hPa 0,0 mm W 270 3,6 km/h (1 Bft)
05.08.2011 05:45 13,5 C 99 % 1085,1 hPa 0,0 mm W 270 2,5 km/h (1 Bft)
05.08.2011 05:50 13,5 C 99 % 1085,0 hPa 0,0 mm W 270 2,5 km/h (1 Bft)
05.08.2011 05:55 13,5 C 99 % 1085,0 hPa 0,0 mm W 270 2,5 km/h (1 Bft)
05.08.2011 06:00 13,4 C 99 % 1085,1 hPa 0,0 mm W 270 2,5 km/h (1 Bft)
05.08.2011 06:05 13,4 C 99 % 1085,2 hPa 0,0 mm W 270 2,5 km/h (1 Bft)
05.08.2011 06:10 13,5 C 99 % 1085,1 hPa 0,0 mm W 270 2,5 km/h (1 Bft)
05.08.2011 06:15 13,4 C 99 % 1085,0 hPa 0,0 mm W 270 3,6 km/h (1 Bft)
05.08.2011 06:20 13,5 C 99 % 1085,1 hPa 0,0 mm W 270 3,6 km/h (1 Bft)
05.08.2011 06:25 13,5 C 99 % 1085,1 hPa 0,0 mm W 270 2,5 km/h (1 Bft)
05.08.2011 06:30 13,5 C 99 % 1085,1 hPa 0,0 mm W 270 2,5 km/h (1 Bft)
05.08.2011 06:35 13,5 C 99 % 1085,1 hPa 0,0 mm W 270 2,5 km/h (1 Bft)
05.08.2011 06:40 13,5 C 99 % 1085,1 hPa 0,0 mm W 270 1,1 km/h (1 Bft)
05.08.2011 06:45 13,6 C 99 % 1085,0 hPa 0,0 mm W 270 1,1 km/h (1 Bft)
05.08.2011 06:50 13,7 C 99 % 1084,9 hPa 0,0 mm W 270 1,1 km/h (1 Bft)
05.08.2011 06:55 13,7 C 99 % 1085,0 hPa 0,0 mm W 270 1,1 km/h (1 Bft)
05.08.2011 07:00 13,9 C 99 % 1085,1 hPa 0,0 mm W 270 2,5 km/h (1 Bft)
05.08.2011 07:05 13,9 C 99 % 1085,1 hPa 0,0 mm W 270 2,5 km/h (1 Bft)
05.08.2011 07:10 13,9 C 99 % 1085,0 hPa 0,0 mm W 270 3,6 km/h (1 Bft)
05.08.2011 07:15 13,9 C 99 % 1085,0 hPa 0,0 mm W 270 3,6 km/h (1 Bft)
05.08.2011 07:20 14,1 C 99 % 1084,7 hPa 0,0 mm W 270 3,6 km/h (1 Bft)
05.08.2011 07:25 14,2 C 99 % 1085,0 hPa 0,0 mm W 270 2,5 km/h (1 Bft)
05.08.2011 07:30 14,4 C 99 % 1084,7 hPa 0,0 mm W 270 2,5 km/h (1 Bft)
05.08.2011 07:35 14,6 C 99 % 1084,9 hPa 0,0 mm W 270 1,1 km/h (1 Bft)
05.08.2011 07:40 14,9 C 99 % 1084,6 hPa 0,0 mm W 270 1,1 km/h (1 Bft)
05.08.2011 07:45 15,2 C 99 % 1084,4 hPa 0,0 mm W 270 1,1 km/h (1 Bft)
05.08.2011 07:50 15,6 C 99 % 1084,4 hPa 0,0 mm W 270 1,1 km/h (1 Bft)
05.08.2011 07:55 15,9 C 99 % 1084,6 hPa 0,0 mm N 0 0,0 km/h (0 Bft)
05.08.2011 08:00 15,8 C 99 % 1084,5 hPa 0,0 mm W 270 2,5 km/h (1 Bft)
05.08.2011 08:05 15,7 C 99 % 1084,5 hPa 0,0 mm W 270 2,5 km/h (1 Bft)
05.08.2011 08:10 16,3 C 99 % 1084,2 hPa 0,0 mm W 270 2,5 km/h (1 Bft)
05.08.2011 08:15 16,3 C 99 % 1084,0 hPa 0,0 mm W 270 2,5 km/h (1 Bft)
05.08.2011 08:20 16,2 C 99 % 1084,0 hPa 0,0 mm W 270 1,1 km/h (1 Bft)
05.08.2011 08:25 16,2 C 99 % 1084,0 hPa 0,0 mm N 0 0,0 km/h (0 Bft)
05.08.2011 08:30 16,5 C 99 % 1083,8 hPa 0,0 mm W 270 1,1 km/h (1 Bft)
05.08.2011 08:35 17,1 C 99 % 1083,8 hPa 0,0 mm W 270 2,5 km/h (1 Bft)
05.08.2011 08:40 17,6 C 99 % 1083,7 hPa 0,0 mm W 270 3,6 km/h (1 Bft)
05.08.2011 08:45 18,0 C 99 % 1083,5 hPa 0,0 mm W-SW 242 5,0 km/h (1 Bft)
05.08.2011 08:50 18,3 C 99 % 1083,5 hPa 0,0 mm O 92 6,1 km/h (2 Bft)
05.08.2011 08:55 18,8 C 99 % 1083,3 hPa 0,0 mm O-NO 62 6,1 km/h (2 Bft)
05.08.2011 09:00 19,2 C 99 % 1083,2 hPa 0,0 mm O 92 6,1 km/h (2 Bft)
05.08.2011 09:05 19,2 C 99 % 1083,0 hPa 0,0 mm SO 130 6,1 km/h (2 Bft)
05.08.2011 09:10 19,5 C 99 % 1083,0 hPa 0,0 mm SO 132 3,6 km/h (1 Bft)
05.08.2011 09:15 20,1 C 99 % 1082,6 hPa 0,0 mm O-SO 116 3,6 km/h (1 Bft)
05.08.2011 09:20 20,4 C 99 % 1082,8 hPa 0,0 mm O 96 3,6 km/h (1 Bft)
05.08.2011 09:25 20,7 C 98 % 1082,8 hPa 0,0 mm O 86 3,6 km/h (1 Bft)
05.08.2011 09:30 20,9 C 98 % 1082,5 hPa 0,0 mm O-SO 104 5,0 km/h (1 Bft)
05.08.2011 09:35 21,0 C 99 % 1082,4 hPa 0,0 mm SO 124 5,0 km/h (1 Bft)
05.08.2011 09:40 21,0 C 96 % 1082,6 hPa 0,0 mm O-SO 113 6,1 km/h (2 Bft)
05.08.2011 09:45 20,9 C 95 % 1082,6 hPa 0,0 mm O-SO 108 7,2 km/h (2 Bft)
05.08.2011 09:50 21,0 C 94 % 1082,6 hPa 0,0 mm O-SO 118 7,2 km/h (2 Bft)
05.08.2011 09:55 21,2 C 95 % 1082,3 hPa 0,0 mm SO 128 6,1 km/h (2 Bft)
05.08.2011 10:00 21,3 C 92 % 1082,4 hPa 0,0 mm O-SO 114 8,6 km/h (2 Bft)
05.08.2011 10:05 21,4 C 93 % 1082,4 hPa 0,0 mm O-NO 74 8,6 km/h (2 Bft)
05.08.2011 10:10 21,8 C 90 % 1082,3 hPa 0,0 mm O-NO 59 5,0 km/h (1 Bft)
05.08.2011 10:15 22,2 C 92 % 1082,1 hPa 0,0 mm O-SO 103 6,1 km/h (2 Bft)
05.08.2011 10:20 22,4 C 90 % 1082,1 hPa 0,0 mm SO 135 6,1 km/h (2 Bft)
05.08.2011 10:25 22,4 C 89 % 1082,1 hPa 0,0 mm SO 135 5,0 km/h (1 Bft)
05.08.2011 10:30 22,7 C 90 % 1082,2 hPa 0,0 mm SO 135 5,0 km/h (1 Bft)
05.08.2011 10:35 23,0 C 87 % 1082,0 hPa 0,0 mm SO 135 3,6 km/h (1 Bft)
05.08.2011 10:40 23,2 C 86 % 1081,9 hPa 0,0 mm SO 135 2,5 km/h (1 Bft)
05.08.2011 10:45 23,5 C 86 % 1081,7 hPa 0,0 mm SO 130 5,0 km/h (1 Bft)
05.08.2011 10:50 23,7 C 84 % 1081,5 hPa 0,0 mm O-NO 65 5,0 km/h (1 Bft)
05.08.2011 10:55 24,1 C 88 % 1081,2 hPa 0,0 mm NO 37 5,0 km/h (1 Bft)
05.08.2011 11:00 24,4 C 84 % 1081,2 hPa 0,0 mm N-NO 18 5,0 km/h (1 Bft)
05.08.2011 11:05 24,4 C 84 % 1081,2 hPa 0,0 mm N 3 5,0 km/h (1 Bft)
05.08.2011 11:10 25,1 C 84 % 1081,3 hPa 0,0 mm N 1 6,1 km/h (2 Bft)
05.08.2011 11:15 25,4 C 83 % 1081,2 hPa 0,0 mm N 1 6,1 km/h (2 Bft)
05.08.2011 11:20 25,4 C 79 % 1081,1 hPa 0,0 mm W-NW 285 9,7 km/h (2 Bft)
05.08.2011 11:25 25,3 C 79 % 1081,2 hPa 0,0 mm W-SW 248 9,7 km/h (2 Bft)
05.08.2011 11:30 25,4 C 79 % 1081,2 hPa 0,0 mm SW 217 9,7 km/h (2 Bft)
05.08.2011 11:35 25,8 C 82 % 1081,1 hPa 0,0 mm O 87 6,1 km/h (2 Bft)
05.08.2011 11:40 26,1 C 77 % 1081,2 hPa 0,0 mm W-NW 292 6,1 km/h (2 Bft)
05.08.2011 11:45 26,1 C 75 % 1081,3 hPa 0,0 mm W 267 9,7 km/h (2 Bft)
05.08.2011 11:50 26,2 C 70 % 1081,2 hPa 0,0 mm W 261 14,8 km/h (3 Bft)
05.08.2011 11:55 26,3 C 71 % 1081,3 hPa 0,0 mm W-SW 252 14,8 km/h (3 Bft)
05.08.2011 12:00 26,5 C 68 % 1081,3 hPa 0,0 mm W 261 15,8 km/h (3 Bft)
05.08.2011 12:05 26,5 C 68 % 1081,4 hPa 0,0 mm W-SW 246 15,8 km/h (3 Bft)
05.08.2011 12:10 26,1 C 68 % 1081,2 hPa 0,0 mm SW 230 11,2 km/h (2 Bft)
05.08.2011 12:15 25,9 C 65 % 1081,5 hPa 0,0 mm W-SW 237 11,2 km/h (2 Bft)
05.08.2011 12:20 25,9 C 66 % 1081,3 hPa 0,0 mm W-SW 254 11,2 km/h (2 Bft)
05.08.2011 12:25 25,8 C 65 % 1081,6 hPa 0,0 mm W-SW 258 11,2 km/h (2 Bft)
05.08.2011 12:30 25,7 C 65 % 1081,5 hPa 0,0 mm W-SW 238 11,2 km/h (2 Bft)
05.08.2011 12:35 25,5 C 67 % 1081,5 hPa 0,0 mm SW 223 11,2 km/h (2 Bft)
05.08.2011 12:40 25,5 C 66 % 1081,5 hPa 0,0 mm SW 224 11,2 km/h (2 Bft)
05.08.2011 12:45 25,4 C 66 % 1081,5 hPa 0,0 mm SW 235 11,2 km/h (2 Bft)
05.08.2011 12:50 25,4 C 69 % 1081,4 hPa 0,0 mm SW 235 9,7 km/h (2 Bft)
05.08.2011 12:55 25,4 C 68 % 1081,3 hPa 0,0 mm W-SW 246 11,2 km/h (2 Bft)
05.08.2011 13:00 25,4 C 69 % 1081,2 hPa 0,0 mm W-SW 258 13,3 km/h (3 Bft)
05.08.2011 13:05 25,4 C 69 % 1081,2 hPa 0,0 mm W-NW 285 13,3 km/h (3 Bft)
05.08.2011 13:10 25,7 C 67 % 1081,5 hPa 0,0 mm NW 308 11,2 km/h (2 Bft)
05.08.2011 13:15 25,5 C 69 % 1081,3 hPa 0,0 mm W 278 11,2 km/h (2 Bft)
05.08.2011 13:20 25,4 C 69 % 1081,4 hPa 0,0 mm W-SW 243 11,2 km/h (2 Bft)
05.08.2011 13:25 25,2 C 69 % 1081,3 hPa 0,0 mm SW 230 9,7 km/h (2 Bft)
05.08.2011 13:30 25,1 C 69 % 1081,5 hPa 0,0 mm SW 233 11,2 km/h (2 Bft)
05.08.2011 13:35 25,1 C 69 % 1081,4 hPa 0,0 mm W-SW 247 11,2 km/h (2 Bft)
05.08.2011 13:40 25,2 C 68 % 1081,4 hPa 0,0 mm SW 234 11,2 km/h (2 Bft)
05.08.2011 13:45 25,3 C 67 % 1081,2 hPa 0,0 mm SW 228 9,7 km/h (2 Bft)
05.08.2011 13:50 25,6 C 67 % 1081,4 hPa 0,0 mm S-SW 211 8,6 km/h (2 Bft)
05.08.2011 13:55 26,0 C 64 % 1081,3 hPa 0,0 mm W-SW 242 12,2 km/h (2 Bft)
05.08.2011 14:00 25,9 C 63 % 1081,0 hPa 0,0 mm W-SW 244 12,2 km/h (2 Bft)
05.08.2011 14:05 25,9 C 64 % 1081,1 hPa 0,0 mm O-NO 60 9,7 km/h (2 Bft)
05.08.2011 14:10 25,7 C 63 % 1081,3 hPa 0,0 mm N-NO 32 8,6 km/h (2 Bft)
05.08.2011 14:15 25,7 C 62 % 1081,2 hPa 0,0 mm S 188 9,7 km/h (2 Bft)
05.08.2011 14:20 25,8 C 64 % 1081,1 hPa 0,0 mm S 177 9,7 km/h (2 Bft)
05.08.2011 14:25 25,9 C 63 % 1080,9 hPa 0,0 mm S-SW 210 9,7 km/h (2 Bft)
05.08.2011 14:30 26,2 C 64 % 1080,8 hPa 0,0 mm SW 234 8,6 km/h (2 Bft)
05.08.2011 14:35 25,9 C 62 % 1080,8 hPa 0,0 mm S-SW 199 8,6 km/h (2 Bft)
05.08.2011 14:40 25,7 C 62 % 1080,8 hPa 0,0 mm W-SW 244 8,6 km/h (2 Bft)
05.08.2011 14:45 25,8 C 64 % 1080,7 hPa 0,0 mm W-SW 244 8,6 km/h (2 Bft)
05.08.2011 14:50 26,0 C 65 % 1080,6 hPa 0,0 mm W-SW 252 7,2 km/h (2 Bft)
05.08.2011 14:55 26,0 C 65 % 1080,8 hPa 0,0 mm W 262 9,7 km/h (2 Bft)
05.08.2011 15:00 25,9 C 66 % 1080,6 hPa 0,0 mm W-SW 242 9,7 km/h (2 Bft)
05.08.2011 15:05 25,9 C 67 % 1080,7 hPa 0,0 mm W-SW 240 8,6 km/h (2 Bft)
05.08.2011 15:10 25,5 C 67 % 1080,7 hPa 0,0 mm W-SW 258 5,0 km/h (1 Bft)
05.08.2011 15:15 25,4 C 69 % 1080,6 hPa 0,0 mm SO 132 6,1 km/h (2 Bft)
05.08.2011 15:20 25,1 C 69 % 1080,5 hPa 0,0 mm O-SO 122 7,2 km/h (2 Bft)
05.08.2011 15:25 25,1 C 69 % 1080,5 hPa 0,0 mm SO 138 7,2 km/h (2 Bft)
05.08.2011 15:30 25,4 C 69 % 1080,3 hPa 0,0 mm SO 143 7,2 km/h (2 Bft)
05.08.2011 15:35 25,6 C 65 % 1080,4 hPa 0,0 mm O-SO 117 9,7 km/h (2 Bft)
05.08.2011 15:40 25,4 C 66 % 1080,2 hPa 0,0 mm O-SO 111 9,7 km/h (2 Bft)
05.08.2011 15:45 25,7 C 67 % 1080,0 hPa 0,0 mm O-SO 113 7,2 km/h (2 Bft)
05.08.2011 15:50 25,5 C 66 % 1080,4 hPa 0,0 mm O-NO 74 9,7 km/h (2 Bft)
05.08.2011 15:55 25,0 C 67 % 1080,1 hPa 0,0 mm O-NO 67 9,7 km/h (2 Bft)
05.08.2011 16:00 24,9 C 66 % 1080,1 hPa 0,0 mm O-NO 72 8,6 km/h (2 Bft)
05.08.2011 16:05 24,8 C 66 % 1080,1 hPa 0,0 mm O-SO 107 5,0 km/h (1 Bft)
05.08.2011 16:10 24,9 C 66 % 1080,2 hPa 0,0 mm SO 132 5,0 km/h (1 Bft)
05.08.2011 16:15 24,9 C 66 % 1080,0 hPa 0,0 mm O-SO 110 5,0 km/h (1 Bft)
05.08.2011 16:20 24,8 C 66 % 1079,8 hPa 0,0 mm O-NO 61 8,6 km/h (2 Bft)
05.08.2011 16:25 24,7 C 66 % 1079,8 hPa 0,0 mm O-NO 60 8,6 km/h (2 Bft)
05.08.2011 16:30 24,8 C 66 % 1079,9 hPa 0,0 mm O 82 6,1 km/h (2 Bft)
05.08.2011 16:35 24,7 C 69 % 1079,8 hPa 0,0 mm O 83 11,2 km/h (2 Bft)
05.08.2011 16:40 24,9 C 68 % 1079,4 hPa 0,0 mm O 88 11,2 km/h (2 Bft)
05.08.2011 16:45 24,8 C 70 % 1079,8 hPa 0,0 mm O 89 8,6 km/h (2 Bft)
05.08.2011 16:50 24,9 C 70 % 1079,4 hPa 0,0 mm O 87 8,6 km/h (2 Bft)
05.08.2011 16:55 24,9 C 68 % 1079,4 hPa 0,0 mm O 94 8,6 km/h (2 Bft)
05.08.2011 17:00 25,0 C 69 % 1079,5 hPa 0,0 mm O 97 9,7 km/h (2 Bft)
05.08.2011 17:05 25,0 C 69 % 1079,4 hPa 0,0 mm O 93 9,7 km/h (2 Bft)
05.08.2011 17:10 24,9 C 69 % 1079,2 hPa 0,0 mm O 93 9,7 km/h (2 Bft)
05.08.2011 17:15 24,8 C 70 % 1079,4 hPa 0,0 mm O-SO 109 12,2 km/h (2 Bft)
05.08.2011 17:20 24,8 C 68 % 1079,3 hPa 0,0 mm O-SO 119 12,2 km/h (2 Bft)
05.08.2011 17:25 24,8 C 71 % 1079,2 hPa 0,0 mm O-SO 103 9,7 km/h (2 Bft)
05.08.2011 17:30 24,9 C 69 % 1079,0 hPa 0,0 mm O 79 9,7 km/h (2 Bft)
05.08.2011 17:35 24,9 C 70 % 1079,2 hPa 0,0 mm O 85 8,6 km/h (2 Bft)
05.08.2011 17:40 24,9 C 69 % 1079,2 hPa 0,0 mm O 93 9,7 km/h (2 Bft)
05.08.2011 17:45 24,8 C 72 % 1079,1 hPa 0,0 mm O-NO 77 9,7 km/h (2 Bft)
05.08.2011 17:50 24,8 C 69 % 1079,0 hPa 0,0 mm O 81 8,6 km/h (2 Bft)
05.08.2011 17:55 24,7 C 69 % 1079,1 hPa 0,0 mm O-NO 72 9,7 km/h (2 Bft)
05.08.2011 18:00 24,7 C 71 % 1078,9 hPa 0,0 mm O-NO 66 9,7 km/h (2 Bft)
05.08.2011 18:05 24,7 C 72 % 1078,9 hPa 0,0 mm O 88 8,6 km/h (2 Bft)
05.08.2011 18:10 24,7 C 72 % 1079,3 hPa 0,0 mm O 95 7,2 km/h (2 Bft)
05.08.2011 18:15 24,6 C 72 % 1079,0 hPa 0,0 mm O-SO 105 7,2 km/h (2 Bft)
05.08.2011 18:20 24,4 C 72 % 1079,1 hPa 0,0 mm O-SO 107 9,7 km/h (2 Bft)
05.08.2011 18:25 24,4 C 72 % 1079,2 hPa 0,0 mm O-SO 108 9,7 km/h (2 Bft)
05.08.2011 18:30 24,3 C 72 % 1079,2 hPa 0,0 mm O-SO 119 7,2 km/h (2 Bft)
05.08.2011 18:35 24,2 C 73 % 1079,0 hPa 0,0 mm SO 125 7,2 km/h (2 Bft)
05.08.2011 18:40 24,2 C 75 % 1078,9 hPa 0,0 mm O-SO 117 6,1 km/h (2 Bft)
05.08.2011 18:45 24,0 C 75 % 1079,1 hPa 0,0 mm O-SO 113 7,2 km/h (2 Bft)
05.08.2011 18:50 23,9 C 77 % 1079,0 hPa 0,0 mm O-SO 105 7,2 km/h (2 Bft)
05.08.2011 18:55 23,9 C 77 % 1078,9 hPa 0,0 mm O 96 6,1 km/h (2 Bft)
05.08.2011 19:00 23,9 C 78 % 1078,9 hPa 0,0 mm O 96 6,1 km/h (2 Bft)
05.08.2011 19:05 23,8 C 78 % 1079,1 hPa 0,0 mm O 92 6,1 km/h (2 Bft)
05.08.2011 19:10 23,8 C 80 % 1078,8 hPa 0,0 mm O 89 7,2 km/h (2 Bft)
05.08.2011 19:15 23,8 C 80 % 1078,9 hPa 0,0 mm O-NO 66 7,2 km/h (2 Bft)
05.08.2011 19:20 23,7 C 79 % 1079,1 hPa 0,0 mm NO 50 6,1 km/h (2 Bft)
05.08.2011 19:25 23,4 C 79 % 1079,0 hPa 0,0 mm NO 56 8,6 km/h (2 Bft)
05.08.2011 19:30 23,2 C 80 % 1079,3 hPa 0,0 mm O-NO 61 8,6 km/h (2 Bft)
05.08.2011 19:35 23,0 C 81 % 1079,2 hPa 0,0 mm O 83 5,0 km/h (1 Bft)
05.08.2011 19:40 22,9 C 81 % 1079,2 hPa 0,0 mm O 90 5,0 km/h (1 Bft)
05.08.2011 19:45 22,7 C 82 % 1079,2 hPa 0,0 mm O 97 5,0 km/h (1 Bft)
05.08.2011 19:50 22,3 C 83 % 1079,6 hPa 0,0 mm SO 124 5,0 km/h (1 Bft)
05.08.2011 19:55 22,1 C 85 % 1079,5 hPa 0,0 mm SO 135 5,0 km/h (1 Bft)
05.08.2011 20:00 21,8 C 86 % 1079,6 hPa 0,0 mm SO 135 3,6 km/h (1 Bft)
05.08.2011 20:05 21,8 C 86 % 1079,8 hPa 0,0 mm SO 135 2,5 km/h (1 Bft)
05.08.2011 20:10 21,5 C 88 % 1079,9 hPa 0,0 mm N 0 0,0 km/h (0 Bft)
05.08.2011 20:15 21,3 C 88 % 1079,7 hPa 0,0 mm N 0 0,0 km/h (0 Bft)
05.08.2011 20:20 21,2 C 90 % 1079,8 hPa 0,0 mm N 0 0,0 km/h (0 Bft)
05.08.2011 20:25 21,0 C 90 % 1080,1 hPa 0,0 mm N 0 0,0 km/h (0 Bft)
05.08.2011 20:30 21,0 C 91 % 1080,1 hPa 0,0 mm N 0 0,0 km/h (0 Bft)
05.08.2011 20:35 21,0 C 91 % 1080,1 hPa 0,0 mm NO 45 2,5 km/h (1 Bft)
05.08.2011 20:40 20,9 C 91 % 1080,1 hPa 0,0 mm NO 45 5,0 km/h (1 Bft)
05.08.2011 20:45 20,7 C 92 % 1079,9 hPa 0,0 mm NO 45 5,0 km/h (1 Bft)
05.08.2011 20:50 20,6 C 92 % 1080,1 hPa 0,0 mm NO 45 2,5 km/h (1 Bft)
05.08.2011 20:55 20,4 C 93 % 1080,2 hPa 0,0 mm NO 45 2,5 km/h (1 Bft)
05.08.2011 21:00 20,4 C 93 % 1080,1 hPa 0,0 mm NO 45 1,1 km/h (1 Bft)
05.08.2011 21:05 20,4 C 94 % 1080,2 hPa 0,0 mm NO 46 1,1 km/h (1 Bft)
05.08.2011 21:10 20,3 C 94 % 1080,3 hPa 0,0 mm N 0 0,0 km/h (0 Bft)
05.08.2011 21:15 20,2 C 95 % 1080,4 hPa 0,0 mm N 0 0,0 km/h (0 Bft)
05.08.2011 21:20 20,1 C 95 % 1080,4 hPa 0,0 mm N 0 0,0 km/h (0 Bft)
05.08.2011 21:25 20,0 C 95 % 1080,3 hPa 0,0 mm NO 45 2,5 km/h (1 Bft)
05.08.2011 21:30 19,8 C 96 % 1080,4 hPa 0,0 mm NO 45 2,5 km/h (1 Bft)
05.08.2011 21:35 19,7 C 97 % 1080,5 hPa 0,0 mm NO 46 2,5 km/h (1 Bft)
05.08.2011 21:40 19,7 C 97 % 1080,5 hPa 0,0 mm NO 46 2,5 km/h (1 Bft)
05.08.2011 21:45 19,8 C 97 % 1080,7 hPa 0,0 mm NO 46 2,5 km/h (1 Bft)
05.08.2011 21:50 19,7 C 97 % 1080,6 hPa 0,0 mm O-NO 74 2,5 km/h (1 Bft)
05.08.2011 21:55 19,7 C 98 % 1080,4 hPa 0,0 mm O 85 2,5 km/h (1 Bft)
05.08.2011 22:00 19,7 C 98 % 1080,7 hPa 0,0 mm O 90 1,1 km/h (1 Bft)
05.08.2011 22:05 19,7 C 98 % 1080,6 hPa 0,0 mm O 90 1,1 km/h (1 Bft)
05.08.2011 22:10 19,8 C 98 % 1080,8 hPa 0,0 mm S-SO 162 5,0 km/h (1 Bft)
05.08.2011 22:15 19,8 C 99 % 1080,8 hPa 0,0 mm S-SO 165 5,0 km/h (1 Bft)
05.08.2011 22:20 19,8 C 99 % 1080,9 hPa 0,3 mm S-SO 152 5,0 km/h (1 Bft)
05.08.2011 22:25 19,8 C 99 % 1080,9 hPa 0,0 mm O-SO 123 3,6 km/h (1 Bft)
05.08.2011 22:30 19,7 C 99 % 1081,0 hPa 0,0 mm SO 142 6,1 km/h (2 Bft)
05.08.2011 22:35 19,7 C 99 % 1081,0 hPa 0,3 mm S-SO 168 6,1 km/h (2 Bft)
05.08.2011 22:40 19,6 C 99 % 1081,3 hPa 0,3 mm S-SO 165 6,1 km/h (2 Bft)
05.08.2011 22:45 19,6 C 99 % 1081,3 hPa 0,0 mm S-SO 158 5,0 km/h (1 Bft)
05.08.2011 22:50 19,5 C 99 % 1081,2 hPa 0,3 mm S 191 5,0 km/h (1 Bft)
05.08.2011 22:55 19,5 C 99 % 1081,3 hPa 0,3 mm S-SW 207 5,0 km/h (1 Bft)
05.08.2011 23:00 19,5 C 99 % 1081,3 hPa 0,0 mm S 170 5,0 km/h (1 Bft)
05.08.2011 23:05 19,4 C 99 % 1081,2 hPa 0,0 mm SO 140 3,6 km/h (1 Bft)
05.08.2011 23:10 19,3 C 99 % 1081,2 hPa 0,6 mm SO 135 2,5 km/h (1 Bft)
05.08.2011 23:15 19,3 C 99 % 1081,1 hPa 0,0 mm SO 143 3,6 km/h (1 Bft)
05.08.2011 23:20 19,2 C 99 % 1081,4 hPa 0,3 mm O 95 3,6 km/h (1 Bft)
05.08.2011 23:25 19,2 C 99 % 1081,4 hPa 0,3 mm O-NO 74 7,2 km/h (2 Bft)
05.08.2011 23:30 19,2 C 99 % 1081,3 hPa 0,3 mm S 175 7,2 km/h (2 Bft)
05.08.2011 23:35 19,2 C 99 % 1081,3 hPa 0,3 mm S-SO 152 7,2 km/h (2 Bft)
05.08.2011 23:40 19,2 C 99 % 1081,1 hPa 0,0 mm SO 130 5,0 km/h (1 Bft)
05.08.2011 23:45 19,1 C 99 % 1081,6 hPa 0,3 mm SO 135 5,0 km/h (1 Bft)
05.08.2011 23:50 19,1 C 99 % 1081,4 hPa 0,3 mm SO 135 1,1 km/h (1 Bft)
05.08.2011 23:55 19,0 C 99 % 1081,4 hPa 0,3 mm SO 135 1,1 km/h (1 Bft)
_ Min-Zeit 00:35 14:15 19:10 - - - 00:00
Minimum _ 13,3 C 62 % 1078,8 hPa - - - 0,0 km/h (0 Bft)
_ Max-Zeit 12:00 00:00 00:00 23:10 - - 12:00
Maximum _ 26,5 C 99 % 1085,4 hPa 0,6 mm - - 15,8 km/h
W (3 Bft)
Durchschnitt _ 19,9 C 87 % 1082,2 hPa #4,5 mm SO - 5,1 km/h (1 Bft)